<?xml version='1.0' encoding='UTF-8'?><gpx version="1.1" creator="JPX - https://github.com/jenetics/jpx" xmlns="http://www.topografix.com/GPX/1/1"><trk><trkseg><trkpt lat="44.460312848546934" lon="11.423681662846477"><ele>67.0</ele><time>2026-04-29T14:10:16Z</time></trkpt><trkpt lat="44.460258650557186" lon="11.4237621777509"><ele>67.0</ele><time>2026-04-29T14:10:26Z</time></trkpt><trkpt lat="44.460205380044975" lon="11.423873862067227"><ele>67.0</ele><time>2026-04-29T14:10:29Z</time></trkpt><trkpt lat="44.46016278403089" lon="11.42396064545717"><ele>67.0</ele><time>2026-04-29T14:10:31Z</time></trkpt><trkpt lat="44.46012416017321" lon="11.42404597550497"><ele>67.0</ele><time>2026-04-29T14:10:33Z</time></trkpt><trkpt lat="44.46007761437712" lon="11.424126776571853"><ele>67.0</ele><time>2026-04-29T14:10:36.999Z</time></trkpt><trkpt lat="44.460097222650255" lon="11.424262432479473"><ele>67.0</ele><time>2026-04-29T14:10:39.999Z</time></trkpt><trkpt lat="44.46016463722326" lon="11.424347404266053"><ele>67.0</ele><time>2026-04-29T14:10:41.999Z</time></trkpt><trkpt lat="44.46022769897391" lon="11.424437440429863"><ele>67.0</ele><time>2026-04-29T14:10:43.999Z</time></trkpt><trkpt lat="44.460282458832346" lon="11.424498637713052"><ele>67.0</ele><time>2026-04-29T14:10:45.999Z</time></trkpt><trkpt lat="44.46036533916153" lon="11.424529450007556"><ele>67.0</ele><time>2026-04-29T14:10:48.999Z</time></trkpt><trkpt lat="44.46044126948413" lon="11.42444997835517"><ele>67.0</ele><time>2026-04-29T14:10:50.999Z</time></trkpt><trkpt lat="44.46047843275912" lon="11.424364852800696"><ele>67.0</ele><time>2026-04-29T14:10:51.999Z</time></trkpt><trkpt lat="44.46051936815963" lon="11.424258989223748"><ele>67.0</ele><time>2026-04-29T14:10:53.999Z</time></trkpt><trkpt lat="44.46057523254226" lon="11.424146340602537"><ele>67.0</ele><time>2026-04-29T14:10:55.999Z</time></trkpt><trkpt lat="44.46063604658538" lon="11.424021896797168"><ele>67.0</ele><time>2026-04-29T14:10:57.999Z</time></trkpt><trkpt lat="44.460692734312275" lon="11.423900187393462"><ele>67.0</ele><time>2026-04-29T14:10:59.999Z</time></trkpt><trkpt lat="44.46075442104938" lon="11.423778685952133"><ele>68.0</ele><time>2026-04-29T14:11:01.999Z</time></trkpt><trkpt lat="44.46082625853712" lon="11.423638248238394"><ele>69.0</ele><time>2026-04-29T14:11:03.999Z</time></trkpt><trkpt lat="44.46090289593438" lon="11.423497974736279"><ele>70.0</ele><time>2026-04-29T14:11:05.999Z</time></trkpt><trkpt lat="44.460973987279125" lon="11.42335579558429"><ele>71.0</ele><time>2026-04-29T14:11:07.999Z</time></trkpt><trkpt lat="44.46103986275405" lon="11.423218607081544"><ele>71.0</ele><time>2026-04-29T14:11:09.999Z</time></trkpt><trkpt lat="44.46110717229837" lon="11.423072840734685"><ele>71.0</ele><time>2026-04-29T14:11:11.999Z</time></trkpt><trkpt lat="44.461180953250285" lon="11.422925973001732"><ele>71.0</ele><time>2026-04-29T14:11:13.999Z</time></trkpt><trkpt lat="44.46121122085928" lon="11.422841030876668"><ele>71.0</ele><time>2026-04-29T14:11:14.999Z</time></trkpt><trkpt lat="44.4612497634021" lon="11.422766089636054"><ele>71.0</ele><time>2026-04-29T14:11:15.999Z</time></trkpt><trkpt lat="44.46128975921068" lon="11.422694919846494"><ele>70.85714285714286</ele><time>2026-04-29T14:11:16.999Z</time></trkpt><trkpt lat="44.46133369219198" lon="11.422617730224328"><ele>70.71428571428571</ele><time>2026-04-29T14:11:17.999Z</time></trkpt><trkpt lat="44.46137236929875" lon="11.42253643881486"><ele>70.57142857142857</ele><time>2026-04-29T14:11:18.999Z</time></trkpt><trkpt lat="44.461414432903716" lon="11.422454861422079"><ele>70.42857142857143</ele><time>2026-04-29T14:11:19.999Z</time></trkpt><trkpt lat="44.46144791144075" lon="11.422362445678374"><ele>70.28571428571428</ele><time>2026-04-29T14:11:20.999Z</time></trkpt><trkpt lat="44.461484055056076" lon="11.422277948206201"><ele>70.14285714285714</ele><time>2026-04-29T14:11:21.999Z</time></trkpt><trkpt lat="44.46153006020088" lon="11.42220503030862"><ele>70.0</ele><time>2026-04-29T14:11:22.999Z</time></trkpt><trkpt lat="44.46156888443733" lon="11.422125901676342"><ele>69.83333333333333</ele><time>2026-04-29T14:11:23.999Z</time></trkpt><trkpt lat="44.46160866031178" lon="11.42204486385987"><ele>69.66666666666666</ele><time>2026-04-29T14:11:24.999Z</time></trkpt><trkpt lat="44.461649144445" lon="11.421967347448575"><ele>69.5</ele><time>2026-04-29T14:11:25.999Z</time></trkpt><trkpt lat="44.461691942585546" lon="11.421887225570153"><ele>69.33333333333333</ele><time>2026-04-29T14:11:26.999Z</time></trkpt><trkpt lat="44.46176166365476" lon="11.421756254818622"><ele>69.16666666666667</ele><time>2026-04-29T14:11:28.999Z</time></trkpt><trkpt lat="44.46179543226095" lon="11.42168163124561"><ele>69.0</ele><time>2026-04-29T14:11:29.999Z</time></trkpt><trkpt lat="44.46185505209821" lon="11.421533044410854"><ele>69.0</ele><time>2026-04-29T14:11:31.999Z</time></trkpt><trkpt lat="44.46192422488416" lon="11.42140890657864"><ele>69.0</ele><time>2026-04-29T14:11:33.999Z</time></trkpt><trkpt lat="44.46198855754817" lon="11.421276913528418"><ele>69.0</ele><time>2026-04-29T14:11:35.999Z</time></trkpt><trkpt lat="44.46202305961221" lon="11.421202172341149"><ele>69.0</ele><time>2026-04-29T14:11:36.999Z</time></trkpt><trkpt lat="44.46209463628201" lon="11.421061094481617"><ele>69.0</ele><time>2026-04-29T14:11:38.999Z</time></trkpt><trkpt lat="44.462129406361655" lon="11.420985468881604"><ele>68.66666666666667</ele><time>2026-04-29T14:11:39.999Z</time></trkpt><trkpt lat="44.46219039588727" lon="11.420853425142846"><ele>68.33333333333333</ele><time>2026-04-29T14:11:41.999Z</time></trkpt><trkpt lat="44.462232780009934" lon="11.420769044058675"><ele>68.0</ele><time>2026-04-29T14:11:43.999Z</time></trkpt><trkpt lat="44.46225977575583" lon="11.42067068194741"><ele>67.66666666666666</ele><time>2026-04-29T14:11:47.999Z</time></trkpt><trkpt lat="44.46221411671675" lon="11.42055978399155"><ele>67.33333333333333</ele><time>2026-04-29T14:11:49.999Z</time></trkpt><trkpt lat="44.462158573966974" lon="11.420509078564736"><ele>67.0</ele><time>2026-04-29T14:11:50.999Z</time></trkpt><trkpt lat="44.4620973054117" lon="11.42044971543373"><ele>67.0</ele><time>2026-04-29T14:11:51.999Z</time></trkpt><trkpt lat="44.46203117291422" lon="11.420388237378752"><ele>67.0</ele><time>2026-04-29T14:11:52.999Z</time></trkpt><trkpt lat="44.46196137963185" lon="11.42032705259244"><ele>67.0</ele><time>2026-04-29T14:11:53.999Z</time></trkpt><trkpt lat="44.461888715657075" lon="11.420255895399452"><ele>67.0</ele><time>2026-04-29T14:11:54.999Z</time></trkpt><trkpt lat="44.461814021856554" lon="11.420175890663947"><ele>67.0</ele><time>2026-04-29T14:11:55.999Z</time></trkpt><trkpt lat="44.461727371780846" lon="11.420096396689486"><ele>67.0</ele><time>2026-04-29T14:11:56.999Z</time></trkpt><trkpt lat="44.461637915886655" lon="11.420010876772116"><ele>67.0</ele><time>2026-04-29T14:11:57.999Z</time></trkpt><trkpt lat="44.4615464930465" lon="11.419921090208891"><ele>67.0</ele><time>2026-04-29T14:11:58.999Z</time></trkpt><trkpt lat="44.46146019661317" lon="11.419833098057074"><ele>67.0</ele><time>2026-04-29T14:11:59.999Z</time></trkpt><trkpt lat="44.46137489945538" lon="11.41975057236441"><ele>67.0</ele><time>2026-04-29T14:12:00.999Z</time></trkpt><trkpt lat="44.46129182941233" lon="11.419669806964626"><ele>67.0</ele><time>2026-04-29T14:12:01.999Z</time></trkpt><trkpt lat="44.461205817270695" lon="11.419593152014142"><ele>67.0</ele><time>2026-04-29T14:12:02.999Z</time></trkpt><trkpt lat="44.461127033397126" lon="11.4195227104221"><ele>67.0</ele><time>2026-04-29T14:12:03.999Z</time></trkpt><trkpt lat="44.46104829711145" lon="11.419445299038854"><ele>67.0</ele><time>2026-04-29T14:12:04.999Z</time></trkpt><trkpt lat="44.46097167727291" lon="11.41937321446266"><ele>67.0</ele><time>2026-04-29T14:12:05.999Z</time></trkpt><trkpt lat="44.460894970688386" lon="11.419303566472301"><ele>67.0</ele><time>2026-04-29T14:12:06.999Z</time></trkpt><trkpt lat="44.46081957499636" lon="11.41922931852015"><ele>67.0</ele><time>2026-04-29T14:12:07.999Z</time></trkpt><trkpt lat="44.46074729036704" lon="11.41916486115897"><ele>67.0</ele><time>2026-04-29T14:12:08.999Z</time></trkpt><trkpt lat="44.46068394484156" lon="11.419103178983836"><ele>67.0</ele><time>2026-04-29T14:12:09.999Z</time></trkpt><trkpt lat="44.46063223890885" lon="11.419052497831823"><ele>67.0</ele><time>2026-04-29T14:12:10.999Z</time></trkpt><trkpt lat="44.4605539502256" lon="11.418968393376696"><ele>67.0</ele><time>2026-04-29T14:12:12.999Z</time></trkpt><trkpt lat="44.460484954582355" lon="11.418887981050014"><ele>67.0</ele><time>2026-04-29T14:12:14.999Z</time></trkpt><trkpt lat="44.460407601313904" lon="11.418833210386419"><ele>67.16666666666666</ele><time>2026-04-29T14:12:16.999Z</time></trkpt><trkpt lat="44.46043476696093" lon="11.418684668598877"><ele>67.33333333333333</ele><time>2026-04-29T14:12:18.999Z</time></trkpt><trkpt lat="44.46043556229199" lon="11.418567248424857"><ele>67.5</ele><time>2026-04-29T14:12:21.999Z</time></trkpt><trkpt lat="44.46046120096153" lon="11.418461889614765"><ele>67.66666666666667</ele><time>2026-04-29T14:12:23.999Z</time></trkpt><trkpt lat="44.46046672916486" lon="11.41837270155782"><ele>67.83333333333334</ele><time>2026-04-29T14:12:24.999Z</time></trkpt><trkpt lat="44.46053768612038" lon="11.418277589594823"><ele>68.0</ele><time>2026-04-29T14:12:25.999Z</time></trkpt><trkpt lat="44.46059681288874" lon="11.41816598833059"><ele>68.0</ele><time>2026-04-29T14:12:26.999Z</time></trkpt><trkpt lat="44.46065749515819" lon="11.418043441919675"><ele>68.0</ele><time>2026-04-29T14:12:27.999Z</time></trkpt><trkpt lat="44.46072326565025" lon="11.417911014777511"><ele>68.0</ele><time>2026-04-29T14:12:28.999Z</time></trkpt><trkpt lat="44.46079261805568" lon="11.417771843854805"><ele>68.0</ele><time>2026-04-29T14:12:29.999Z</time></trkpt><trkpt lat="44.46086683259159" lon="11.417624501444488"><ele>67.5</ele><time>2026-04-29T14:12:30.999Z</time></trkpt><trkpt lat="44.46094314390912" lon="11.417473965129568"><ele>67.0</ele><time>2026-04-29T14:12:31.999Z</time></trkpt><trkpt lat="44.46101919551869" lon="11.417320625530238"><ele>66.5</ele><time>2026-04-29T14:12:32.999Z</time></trkpt><trkpt lat="44.46110014728706" lon="11.41716637220768"><ele>66.0</ele><time>2026-04-29T14:12:33.999Z</time></trkpt><trkpt lat="44.46118618329826" lon="11.417003241218085"><ele>66.0</ele><time>2026-04-29T14:12:34.999Z</time></trkpt><trkpt lat="44.46126927790009" lon="11.416848564390449"><ele>66.0</ele><time>2026-04-29T14:12:35.999Z</time></trkpt><trkpt lat="44.46135653242885" lon="11.416694072977792"><ele>66.0</ele><time>2026-04-29T14:12:36.999Z</time></trkpt><trkpt lat="44.461436841498305" lon="11.416537940387581"><ele>66.0</ele><time>2026-04-29T14:12:37.999Z</time></trkpt><trkpt lat="44.46151780548563" lon="11.416381224071548"><ele>66.0</ele><time>2026-04-29T14:12:38.999Z</time></trkpt><trkpt lat="44.46161497310746" lon="11.416235788072488"><ele>66.0</ele><time>2026-04-29T14:12:39.999Z</time></trkpt><trkpt lat="44.461710152942366" lon="11.416098118049312"><ele>66.0</ele><time>2026-04-29T14:12:40.999Z</time></trkpt><trkpt lat="44.46179858003271" lon="11.415959720080988"><ele>66.0</ele><time>2026-04-29T14:12:41.999Z</time></trkpt><trkpt lat="44.461890017999615" lon="11.415822159865375"><ele>66.0</ele><time>2026-04-29T14:12:42.999Z</time></trkpt><trkpt lat="44.46197702997934" lon="11.415689526779246"><ele>66.0</ele><time>2026-04-29T14:12:43.999Z</time></trkpt><trkpt lat="44.46206086718468" lon="11.415557261533102"><ele>66.0</ele><time>2026-04-29T14:12:44.999Z</time></trkpt><trkpt lat="44.462144412856844" lon="11.415431414604418"><ele>66.0</ele><time>2026-04-29T14:12:45.999Z</time></trkpt><trkpt lat="44.46223121548873" lon="11.415306162224459"><ele>66.2</ele><time>2026-04-29T14:12:46.999Z</time></trkpt><trkpt lat="44.46231158406586" lon="11.415187618204898"><ele>66.39999999999999</ele><time>2026-04-29T14:12:47.999Z</time></trkpt><trkpt lat="44.46238672712388" lon="11.41507922385458"><ele>66.6</ele><time>2026-04-29T14:12:48.999Z</time></trkpt><trkpt lat="44.462452801406265" lon="11.414978985693413"><ele>66.8</ele><time>2026-04-29T14:12:49.999Z</time></trkpt><trkpt lat="44.46252186563648" lon="11.414877828178623"><ele>67.0</ele><time>2026-04-29T14:12:50.999Z</time></trkpt><trkpt lat="44.46258144336501" lon="11.414797687825429"><ele>67.0</ele><time>2026-04-29T14:12:51.999Z</time></trkpt><trkpt lat="44.46266101088781" lon="11.414740965978769"><ele>67.0</ele><time>2026-04-29T14:12:52.999Z</time></trkpt><trkpt lat="44.4627216481232" lon="11.41466722762536"><ele>67.0</ele><time>2026-04-29T14:12:53.999Z</time></trkpt><trkpt lat="44.46276786395463" lon="11.414575311214826"><ele>67.0</ele><time>2026-04-29T14:12:54.999Z</time></trkpt><trkpt lat="44.46281719065107" lon="11.414516380036055"><ele>67.0</ele><time>2026-04-29T14:12:55.999Z</time></trkpt><trkpt lat="44.462881166648046" lon="11.41446869186897"><ele>67.0</ele><time>2026-04-29T14:12:56.999Z</time></trkpt><trkpt lat="44.462987727157646" lon="11.414373832428755"><ele>67.0</ele><time>2026-04-29T14:12:58.999Z</time></trkpt><trkpt lat="44.463051377630194" lon="11.414335938125253"><ele>67.0</ele><time>2026-04-29T14:12:59.999Z</time></trkpt><trkpt lat="44.46311678217503" lon="11.41429283838387"><ele>67.0</ele><time>2026-04-29T14:13:00.999Z</time></trkpt><trkpt lat="44.463174120675255" lon="11.414233356139516"><ele>67.0</ele><time>2026-04-29T14:13:01.999Z</time></trkpt><trkpt lat="44.46323115543887" lon="11.414176449810316"><ele>67.0</ele><time>2026-04-29T14:13:02.999Z</time></trkpt><trkpt lat="44.46332565130105" lon="11.414063360388367"><ele>67.0</ele><time>2026-04-29T14:13:04.999Z</time></trkpt><trkpt lat="44.46337342617753" lon="11.413990883797851"><ele>67.0</ele><time>2026-04-29T14:13:05.999Z</time></trkpt><trkpt lat="44.463422180851886" lon="11.413899552697748"><ele>67.0</ele><time>2026-04-29T14:13:06.999Z</time></trkpt><trkpt lat="44.46347138890102" lon="11.41379032127267"><ele>67.0</ele><time>2026-04-29T14:13:07.999Z</time></trkpt><trkpt lat="44.46351841501325" lon="11.41367112280981"><ele>67.0</ele><time>2026-04-29T14:13:08.999Z</time></trkpt><trkpt lat="44.463560730173654" lon="11.41355305700963"><ele>67.0</ele><time>2026-04-29T14:13:09.999Z</time></trkpt><trkpt lat="44.46360312109705" lon="11.413433384451352"><ele>67.0</ele><time>2026-04-29T14:13:10.999Z</time></trkpt><trkpt lat="44.463650839551825" lon="11.41331113907981"><ele>67.0</ele><time>2026-04-29T14:13:11.999Z</time></trkpt><trkpt lat="44.46370047590313" lon="11.413191678011883"><ele>67.0</ele><time>2026-04-29T14:13:12.999Z</time></trkpt><trkpt lat="44.463753706845324" lon="11.41306709231922"><ele>67.0</ele><time>2026-04-29T14:13:13.999Z</time></trkpt><trkpt lat="44.46380045048636" lon="11.412946525473812"><ele>67.0</ele><time>2026-04-29T14:13:14.999Z</time></trkpt><trkpt lat="44.46384410471847" lon="11.412829213510268"><ele>67.2</ele><time>2026-04-29T14:13:15.999Z</time></trkpt><trkpt lat="44.46389038434507" lon="11.412706349766426"><ele>67.4</ele><time>2026-04-29T14:13:16.999Z</time></trkpt><trkpt lat="44.4639369955206" lon="11.412581697775412"><ele>67.6</ele><time>2026-04-29T14:13:17.999Z</time></trkpt><trkpt lat="44.46398582017129" lon="11.412454634538726"><ele>67.8</ele><time>2026-04-29T14:13:18.999Z</time></trkpt><trkpt lat="44.464034045225524" lon="11.412322977693334"><ele>68.0</ele><time>2026-04-29T14:13:19.999Z</time></trkpt><trkpt lat="44.46408221967243" lon="11.41219348186845"><ele>67.83333333333334</ele><time>2026-04-29T14:13:20.999Z</time></trkpt><trkpt lat="44.4641242636042" lon="11.412077159029499"><ele>67.66666666666667</ele><time>2026-04-29T14:13:21.999Z</time></trkpt><trkpt lat="44.46415254907334" lon="11.411970121100286"><ele>67.5</ele><time>2026-04-29T14:13:22.999Z</time></trkpt><trkpt lat="44.4641877963356" lon="11.41187881366846"><ele>67.33333333333333</ele><time>2026-04-29T14:13:23.999Z</time></trkpt><trkpt lat="44.46422759972258" lon="11.411795137970234"><ele>67.16666666666666</ele><time>2026-04-29T14:13:24.999Z</time></trkpt><trkpt lat="44.464262465587" lon="11.41171005033076"><ele>67.0</ele><time>2026-04-29T14:13:25.999Z</time></trkpt><trkpt lat="44.46429798400562" lon="11.411630990348277"><ele>67.0</ele><time>2026-04-29T14:13:26.999Z</time></trkpt><trkpt lat="44.4643559777929" lon="11.411473255904681"><ele>67.0</ele><time>2026-04-29T14:13:28.999Z</time></trkpt><trkpt lat="44.46441493242149" lon="11.411321493351302"><ele>67.0</ele><time>2026-04-29T14:13:30.999Z</time></trkpt><trkpt lat="44.46446217293923" lon="11.411209648255506"><ele>67.0</ele><time>2026-04-29T14:13:32.999Z</time></trkpt><trkpt lat="44.4644946012629" lon="11.411097212719863"><ele>67.0</ele><time>2026-04-29T14:14:03.999Z</time></trkpt><trkpt lat="44.46453828101585" lon="11.411011114410572"><ele>66.8</ele><time>2026-04-29T14:14:06.999Z</time></trkpt><trkpt lat="44.4645848572727" lon="11.410899714506085"><ele>66.6</ele><time>2026-04-29T14:14:08.999Z</time></trkpt><trkpt lat="44.46463923707947" lon="11.410768242340515"><ele>66.39999999999999</ele><time>2026-04-29T14:14:10.999Z</time></trkpt><trkpt lat="44.464670954011865" lon="11.410650010946078"><ele>66.2</ele><time>2026-04-29T14:14:12.999Z</time></trkpt><trkpt lat="44.4646148632703" lon="11.410545054360908"><ele>66.0</ele><time>2026-04-29T14:14:14.999Z</time></trkpt><trkpt lat="44.46452030166092" lon="11.410459306863638"><ele>66.0</ele><time>2026-04-29T14:14:16.999Z</time></trkpt><trkpt lat="44.46444735070564" lon="11.410393622217441"><ele>66.0</ele><time>2026-04-29T14:14:18.999Z</time></trkpt><trkpt lat="44.46437811186281" lon="11.41033127982146"><ele>66.0</ele><time>2026-04-29T14:14:21.999Z</time></trkpt><trkpt lat="44.464307002884254" lon="11.41026003201042"><ele>66.0</ele><time>2026-04-29T14:14:52.999Z</time></trkpt><trkpt lat="44.464217183473025" lon="11.410176361885384"><ele>66.0</ele><time>2026-04-29T14:14:54.999Z</time></trkpt><trkpt lat="44.46415932162908" lon="11.410118008689347"><ele>66.0</ele><time>2026-04-29T14:14:55.999Z</time></trkpt><trkpt lat="44.464101780837254" lon="11.41006767855041"><ele>66.0</ele><time>2026-04-29T14:14:56.999Z</time></trkpt><trkpt lat="44.46399605186057" lon="11.40997789601844"><ele>66.0</ele><time>2026-04-29T14:14:58.999Z</time></trkpt><trkpt lat="44.46393374520756" lon="11.40992701358304"><ele>66.0</ele><time>2026-04-29T14:14:59.999Z</time></trkpt><trkpt lat="44.46386694188698" lon="11.4098572591165"><ele>66.0</ele><time>2026-04-29T14:15:00.999Z</time></trkpt><trkpt lat="44.46379028004622" lon="11.409779076757362"><ele>66.0</ele><time>2026-04-29T14:15:01.999Z</time></trkpt><trkpt lat="44.463707289981436" lon="11.409699887985594"><ele>66.6</ele><time>2026-04-29T14:15:02.999Z</time></trkpt><trkpt lat="44.46361946691164" lon="11.409620596805023"><ele>67.19999999999999</ele><time>2026-04-29T14:15:03.999Z</time></trkpt><trkpt lat="44.46353243650345" lon="11.409539662329932"><ele>67.80000000000001</ele><time>2026-04-29T14:15:04.999Z</time></trkpt><trkpt lat="44.46344702124184" lon="11.409458476722216"><ele>68.4</ele><time>2026-04-29T14:15:05.999Z</time></trkpt><trkpt lat="44.46336549292033" lon="11.409380275524839"><ele>69.0</ele><time>2026-04-29T14:15:06.999Z</time></trkpt><trkpt lat="44.46328786853539" lon="11.40930785322505"><ele>69.0</ele><time>2026-04-29T14:15:07.999Z</time></trkpt><trkpt lat="44.46321300638581" lon="11.40923935690347"><ele>69.0</ele><time>2026-04-29T14:15:08.999Z</time></trkpt><trkpt lat="44.463143919634064" lon="11.409177364106458"><ele>69.0</ele><time>2026-04-29T14:15:09.999Z</time></trkpt><trkpt lat="44.46308242868165" lon="11.40912435809817"><ele>69.0</ele><time>2026-04-29T14:15:10.999Z</time></trkpt><trkpt lat="44.46297795932364" lon="11.409054935422235"><ele>69.0</ele><time>2026-04-29T14:15:12.999Z</time></trkpt><trkpt lat="44.46291802812038" lon="11.409026722150424"><ele>69.0</ele><time>2026-04-29T14:15:14.999Z</time></trkpt><trkpt lat="44.46297620334978" lon="11.408815368742317"><ele>69.16666666666667</ele><time>2026-04-29T14:15:16.999Z</time></trkpt><trkpt lat="44.46301315170237" lon="11.40873748845004"><ele>69.33333333333333</ele><time>2026-04-29T14:15:17.999Z</time></trkpt><trkpt lat="44.46305318754324" lon="11.408648467088069"><ele>69.5</ele><time>2026-04-29T14:15:18.999Z</time></trkpt><trkpt lat="44.46309619805021" lon="11.408556651516388"><ele>69.66666666666666</ele><time>2026-04-29T14:15:19.999Z</time></trkpt><trkpt lat="44.4631414724667" lon="11.40846170456552"><ele>69.83333333333333</ele><time>2026-04-29T14:15:20.999Z</time></trkpt><trkpt lat="44.46318483383625" lon="11.408365713785326"><ele>70.0</ele><time>2026-04-29T14:15:21.999Z</time></trkpt><trkpt lat="44.46322967832139" lon="11.408270632208577"><ele>70.0</ele><time>2026-04-29T14:15:22.999Z</time></trkpt><trkpt lat="44.463275389373536" lon="11.408170441019726"><ele>70.0</ele><time>2026-04-29T14:15:23.999Z</time></trkpt><trkpt lat="44.4633209058729" lon="11.408076417900794"><ele>70.0</ele><time>2026-04-29T14:15:24.999Z</time></trkpt><trkpt lat="44.463365347734786" lon="11.407982708693218"><ele>70.0</ele><time>2026-04-29T14:15:25.999Z</time></trkpt><trkpt lat="44.46340670929775" lon="11.407897492551607"><ele>70.0</ele><time>2026-04-29T14:15:26.999Z</time></trkpt><trkpt lat="44.46344325477224" lon="11.407818091769322"><ele>70.0</ele><time>2026-04-29T14:15:27.999Z</time></trkpt><trkpt lat="44.46349137280481" lon="11.407714405858222"><ele>70.6</ele><time>2026-04-29T14:15:29.999Z</time></trkpt><trkpt lat="44.46353677852158" lon="11.407613367948745"><ele>71.2</ele><time>2026-04-29T14:15:32.999Z</time></trkpt><trkpt lat="44.463585216798876" lon="11.407498666828086"><ele>71.8</ele><time>2026-04-29T14:15:34.999Z</time></trkpt><trkpt lat="44.463653009929864" lon="11.40733940302582"><ele>72.4</ele><time>2026-04-29T14:15:36.999Z</time></trkpt><trkpt lat="44.46369741061239" lon="11.407246624152446"><ele>73.0</ele><time>2026-04-29T14:15:37.999Z</time></trkpt><trkpt lat="44.46374230664435" lon="11.407151438477813"><ele>73.14285714285714</ele><time>2026-04-29T14:15:38.999Z</time></trkpt><trkpt lat="44.46378594995529" lon="11.407057675036619"><ele>73.28571428571429</ele><time>2026-04-29T14:15:39.999Z</time></trkpt><trkpt lat="44.463826144914336" lon="11.40696707338289"><ele>73.42857142857143</ele><time>2026-04-29T14:15:40.999Z</time></trkpt><trkpt lat="44.46386565400548" lon="11.406880182215108"><ele>73.57142857142857</ele><time>2026-04-29T14:15:41.999Z</time></trkpt><trkpt lat="44.46390330312483" lon="11.40679911826246"><ele>73.71428571428571</ele><time>2026-04-29T14:15:42.999Z</time></trkpt><trkpt lat="44.463939402617065" lon="11.406717828170242"><ele>73.85714285714286</ele><time>2026-04-29T14:15:43.999Z</time></trkpt><trkpt lat="44.46397808210531" lon="11.406640084018587"><ele>74.0</ele><time>2026-04-29T14:15:44.999Z</time></trkpt><trkpt lat="44.46401421183397" lon="11.406562629726734"><ele>74.0</ele><time>2026-04-29T14:15:45.999Z</time></trkpt><trkpt lat="44.464050240510225" lon="11.406484141177147"><ele>74.0</ele><time>2026-04-29T14:15:46.999Z</time></trkpt><trkpt lat="44.464106286862744" lon="11.406346902641653"><ele>74.0</ele><time>2026-04-29T14:15:48.999Z</time></trkpt><trkpt lat="44.46413767502533" lon="11.40626610067974"><ele>74.0</ele><time>2026-04-29T14:15:50.999Z</time></trkpt><trkpt lat="44.46417424787921" lon="11.406175260823755"><ele>74.0</ele><time>2026-04-29T14:15:55.999Z</time></trkpt><trkpt lat="44.46412864106308" lon="11.406039942058223"><ele>74.0</ele><time>2026-04-29T14:16:01.999Z</time></trkpt><trkpt lat="44.46402587573781" lon="11.405954887988191"><ele>73.83333333333334</ele><time>2026-04-29T14:16:03.999Z</time></trkpt><trkpt lat="44.4639666669694" lon="11.405902689360659"><ele>73.66666666666667</ele><time>2026-04-29T14:16:04.999Z</time></trkpt><trkpt lat="44.46390753888925" lon="11.40584502074516"><ele>73.5</ele><time>2026-04-29T14:16:05.999Z</time></trkpt><trkpt lat="44.46384583680998" lon="11.4057885668196"><ele>73.33333333333333</ele><time>2026-04-29T14:16:06.999Z</time></trkpt><trkpt lat="44.46378456211461" lon="11.405732976257395"><ele>73.16666666666666</ele><time>2026-04-29T14:16:07.999Z</time></trkpt><trkpt lat="44.46372861871965" lon="11.405677250541652"><ele>73.0</ele><time>2026-04-29T14:16:08.999Z</time></trkpt><trkpt lat="44.463628368812735" lon="11.405580832958828"><ele>73.6</ele><time>2026-04-29T14:16:10.999Z</time></trkpt><trkpt lat="44.46357691103326" lon="11.405527642775146"><ele>74.19999999999999</ele><time>2026-04-29T14:16:11.999Z</time></trkpt><trkpt lat="44.46352592861086" lon="11.405466444104913"><ele>74.8</ele><time>2026-04-29T14:16:13Z</time></trkpt><trkpt lat="44.463479682957804" lon="11.405389922260085"><ele>75.39999999999999</ele><time>2026-04-29T14:16:14Z</time></trkpt><trkpt lat="44.46342367542197" lon="11.405347539591514"><ele>76.0</ele><time>2026-04-29T14:16:15Z</time></trkpt><trkpt lat="44.46342728473597" lon="11.405058332864252"><ele>76.16666666666666</ele><time>2026-04-29T14:16:17Z</time></trkpt><trkpt lat="44.463443869503116" lon="11.40493171355168"><ele>76.33333333333333</ele><time>2026-04-29T14:16:18Z</time></trkpt><trkpt lat="44.46346053004341" lon="11.404798376368573"><ele>76.5</ele><time>2026-04-29T14:16:19Z</time></trkpt><trkpt lat="44.46349329971232" lon="11.404675520352265"><ele>76.66666666666667</ele><time>2026-04-29T14:16:20Z</time></trkpt><trkpt lat="44.46349636988435" lon="11.404559871421586"><ele>76.83333333333334</ele><time>2026-04-29T14:16:21Z</time></trkpt><trkpt lat="44.46348330006939" lon="11.404454113155108"><ele>77.0</ele><time>2026-04-29T14:16:22Z</time></trkpt><trkpt lat="44.4634476421575" lon="11.404354792193098"><ele>77.16666666666667</ele><time>2026-04-29T14:16:23Z</time></trkpt><trkpt lat="44.46339680542136" lon="11.404261984222387"><ele>77.33333333333334</ele><time>2026-04-29T14:16:24Z</time></trkpt><trkpt lat="44.46333828599397" lon="11.404164649914213"><ele>77.5</ele><time>2026-04-29T14:16:25Z</time></trkpt><trkpt lat="44.4632804878361" lon="11.404065534815066"><ele>77.66666666666667</ele><time>2026-04-29T14:16:26Z</time></trkpt><trkpt lat="44.46322188319323" lon="11.40396698043276"><ele>77.83333333333333</ele><time>2026-04-29T14:16:27Z</time></trkpt><trkpt lat="44.46317210398871" lon="11.403877846361276"><ele>78.0</ele><time>2026-04-29T14:16:28Z</time></trkpt><trkpt lat="44.463125468832494" lon="11.403791251250334"><ele>78.16666666666667</ele><time>2026-04-29T14:16:29Z</time></trkpt><trkpt lat="44.463083929253095" lon="11.403720652115066"><ele>78.33333333333333</ele><time>2026-04-29T14:16:30Z</time></trkpt><trkpt lat="44.46302090380912" lon="11.403611360735347"><ele>78.5</ele><time>2026-04-29T14:16:32Z</time></trkpt><trkpt lat="44.46295346464667" lon="11.403549110539947"><ele>78.66666666666666</ele><time>2026-04-29T14:16:47Z</time></trkpt><trkpt lat="44.462887303899706" lon="11.403489152519802"><ele>78.83333333333333</ele><time>2026-04-29T14:16:49Z</time></trkpt><trkpt lat="44.462795011063236" lon="11.40340952922296"><ele>79.0</ele><time>2026-04-29T14:16:51Z</time></trkpt><trkpt lat="44.46268294745749" lon="11.40339670633672"><ele>79.0</ele><time>2026-04-29T14:16:53Z</time></trkpt><trkpt lat="44.462591764766394" lon="11.403316272535088"><ele>79.0</ele><time>2026-04-29T14:16:54Z</time></trkpt><trkpt lat="44.46255434826805" lon="11.403139436443883"><ele>79.0</ele><time>2026-04-29T14:16:54.999Z</time></trkpt><trkpt lat="44.46275840234705" lon="11.403048081974909"><ele>78.83333333333333</ele><time>2026-04-29T14:16:55.999Z</time></trkpt><trkpt lat="44.46280441578336" lon="11.402940072300561"><ele>78.66666666666666</ele><time>2026-04-29T14:16:56.999Z</time></trkpt><trkpt lat="44.46285098186317" lon="11.402840655765376"><ele>78.5</ele><time>2026-04-29T14:16:57.999Z</time></trkpt><trkpt lat="44.462893285657664" lon="11.402739287645666"><ele>78.33333333333333</ele><time>2026-04-29T14:16:58.999Z</time></trkpt><trkpt lat="44.462936353870354" lon="11.402637392446884"><ele>78.16666666666667</ele><time>2026-04-29T14:16:59.999Z</time></trkpt><trkpt lat="44.46298421530543" lon="11.402540444756436"><ele>78.0</ele><time>2026-04-29T14:17:00.999Z</time></trkpt><trkpt lat="44.46303320032134" lon="11.402442859972536"><ele>78.0</ele><time>2026-04-29T14:17:01.999Z</time></trkpt><trkpt lat="44.463081051341334" lon="11.40233572990658"><ele>78.0</ele><time>2026-04-29T14:17:02.999Z</time></trkpt><trkpt lat="44.46312734168111" lon="11.402236291353244"><ele>78.0</ele><time>2026-04-29T14:17:03.999Z</time></trkpt><trkpt lat="44.46317151472058" lon="11.402142148134308"><ele>78.0</ele><time>2026-04-29T14:17:04.999Z</time></trkpt><trkpt lat="44.463214580609794" lon="11.402048661050033"><ele>78.0</ele><time>2026-04-29T14:17:05.999Z</time></trkpt><trkpt lat="44.46325948242926" lon="11.401964032823457"><ele>78.0</ele><time>2026-04-29T14:17:06.999Z</time></trkpt><trkpt lat="44.463296732305544" lon="11.401875723763613"><ele>78.0</ele><time>2026-04-29T14:17:07.999Z</time></trkpt><trkpt lat="44.463331017977865" lon="11.401793726755825"><ele>78.0</ele><time>2026-04-29T14:17:08.999Z</time></trkpt><trkpt lat="44.463383080286256" lon="11.401697027698896"><ele>78.0</ele><time>2026-04-29T14:17:10.999Z</time></trkpt><trkpt lat="44.46343524403382" lon="11.401603130257447"><ele>78.0</ele><time>2026-04-29T14:17:19.999Z</time></trkpt><trkpt lat="44.4634899118685" lon="11.401512048296869"><ele>78.0</ele><time>2026-04-29T14:17:29.999Z</time></trkpt><trkpt lat="44.46355778754785" lon="11.40139593473229"><ele>78.0</ele><time>2026-04-29T14:17:31.999Z</time></trkpt><trkpt lat="44.46360177282764" lon="11.40132942084036"><ele>78.33333333333333</ele><time>2026-04-29T14:17:32.999Z</time></trkpt><trkpt lat="44.46365148902243" lon="11.401261460850023"><ele>78.66666666666667</ele><time>2026-04-29T14:17:33.999Z</time></trkpt><trkpt lat="44.46370646639483" lon="11.401189317703214"><ele>79.0</ele><time>2026-04-29T14:17:34.999Z</time></trkpt><trkpt lat="44.46376542431381" lon="11.401118112754595"><ele>79.33333333333334</ele><time>2026-04-29T14:17:35.999Z</time></trkpt><trkpt lat="44.463826446211954" lon="11.401046492196004"><ele>79.66666666666667</ele><time>2026-04-29T14:17:36.999Z</time></trkpt><trkpt lat="44.46388629330437" lon="11.400972882249496"><ele>80.0</ele><time>2026-04-29T14:17:37.999Z</time></trkpt><trkpt lat="44.46394276426402" lon="11.400903215083359"><ele>80.0</ele><time>2026-04-29T14:17:38.999Z</time></trkpt><trkpt lat="44.46399841924633" lon="11.40083488102207"><ele>80.0</ele><time>2026-04-29T14:17:39.999Z</time></trkpt><trkpt lat="44.46405527855219" lon="11.400766272820043"><ele>80.0</ele><time>2026-04-29T14:17:40.999Z</time></trkpt><trkpt lat="44.46411010663298" lon="11.400691912024294"><ele>80.0</ele><time>2026-04-29T14:17:41.999Z</time></trkpt><trkpt lat="44.464163726856775" lon="11.400607866532974"><ele>80.0</ele><time>2026-04-29T14:17:42.999Z</time></trkpt><trkpt lat="44.46422080742104" lon="11.400514262486983"><ele>80.0</ele><time>2026-04-29T14:17:43.999Z</time></trkpt><trkpt lat="44.464276758760775" lon="11.400411575459774"><ele>80.0</ele><time>2026-04-29T14:17:44.999Z</time></trkpt><trkpt lat="44.464331358266186" lon="11.400298386065899"><ele>80.0</ele><time>2026-04-29T14:17:45.999Z</time></trkpt><trkpt lat="44.464388572130105" lon="11.400178249211939"><ele>80.0</ele><time>2026-04-29T14:17:46.999Z</time></trkpt><trkpt lat="44.46444723084365" lon="11.400051506427799"><ele>80.0</ele><time>2026-04-29T14:17:47.999Z</time></trkpt><trkpt lat="44.46450710256864" lon="11.399923597889124"><ele>80.0</ele><time>2026-04-29T14:17:48.999Z</time></trkpt><trkpt lat="44.4645688360005" lon="11.39979163676744"><ele>79.25</ele><time>2026-04-29T14:17:49.999Z</time></trkpt><trkpt lat="44.46463540365922" lon="11.39965944987574"><ele>78.5</ele><time>2026-04-29T14:17:50.999Z</time></trkpt><trkpt lat="44.46470050514092" lon="11.399529419342503"><ele>77.75</ele><time>2026-04-29T14:17:51.999Z</time></trkpt><trkpt lat="44.46476893964466" lon="11.399405107203288"><ele>77.0</ele><time>2026-04-29T14:17:52.999Z</time></trkpt><trkpt lat="44.46483929072362" lon="11.399282568480933"><ele>77.0</ele><time>2026-04-29T14:17:53.999Z</time></trkpt><trkpt lat="44.46490978218755" lon="11.399162782249395"><ele>77.0</ele><time>2026-04-29T14:17:54.999Z</time></trkpt><trkpt lat="44.464986043575216" lon="11.399049506995997"><ele>77.0</ele><time>2026-04-29T14:17:55.999Z</time></trkpt><trkpt lat="44.46506011318618" lon="11.398935915072842"><ele>77.0</ele><time>2026-04-29T14:17:56.999Z</time></trkpt><trkpt lat="44.465133278976765" lon="11.398823332872084"><ele>77.0</ele><time>2026-04-29T14:17:57.999Z</time></trkpt><trkpt lat="44.46520641172982" lon="11.398716545691938"><ele>77.2</ele><time>2026-04-29T14:17:58.999Z</time></trkpt><trkpt lat="44.4652760194402" lon="11.398612798323887"><ele>77.4</ele><time>2026-04-29T14:17:59.999Z</time></trkpt><trkpt lat="44.46534399413555" lon="11.398506744292394"><ele>77.6</ele><time>2026-04-29T14:18:01Z</time></trkpt><trkpt lat="44.46541054903919" lon="11.398404731869476"><ele>77.8</ele><time>2026-04-29T14:18:02Z</time></trkpt><trkpt lat="44.46547599869365" lon="11.398301750365732"><ele>78.0</ele><time>2026-04-29T14:18:03Z</time></trkpt><trkpt lat="44.46553917949949" lon="11.39820603630946"><ele>78.0</ele><time>2026-04-29T14:18:04Z</time></trkpt><trkpt lat="44.46559398646489" lon="11.398123658651768"><ele>78.0</ele><time>2026-04-29T14:18:05Z</time></trkpt><trkpt lat="44.465641964479744" lon="11.39804714621922"><ele>78.0</ele><time>2026-04-29T14:18:06Z</time></trkpt><trkpt lat="44.465716499044085" lon="11.397931977137695"><ele>78.0</ele><time>2026-04-29T14:18:08Z</time></trkpt><trkpt lat="44.46577089848742" lon="11.39785285248902"><ele>78.0</ele><time>2026-04-29T14:18:10Z</time></trkpt><trkpt lat="44.46581434482374" lon="11.397784341246192"><ele>78.0</ele><time>2026-04-29T14:18:13Z</time></trkpt><trkpt lat="44.46588042089043" lon="11.39771034983043"><ele>77.8</ele><time>2026-04-29T14:18:39Z</time></trkpt><trkpt lat="44.46594895034233" lon="11.397602798146863"><ele>77.6</ele><time>2026-04-29T14:18:41Z</time></trkpt><trkpt lat="44.465991060577856" lon="11.397536911189746"><ele>77.4</ele><time>2026-04-29T14:18:42Z</time></trkpt><trkpt lat="44.46606926842226" lon="11.397411869687708"><ele>77.2</ele><time>2026-04-29T14:18:44Z</time></trkpt><trkpt lat="44.466138072296744" lon="11.397306171686703"><ele>77.0</ele><time>2026-04-29T14:18:46Z</time></trkpt><trkpt lat="44.46619911489617" lon="11.397211716752032"><ele>77.33333333333334</ele><time>2026-04-29T14:18:48Z</time></trkpt><trkpt lat="44.46625963224319" lon="11.397134806192957"><ele>77.66666666666667</ele><time>2026-04-29T14:18:51Z</time></trkpt><trkpt lat="44.466311710703735" lon="11.397067086319664"><ele>78.0</ele><time>2026-04-29T14:18:53Z</time></trkpt><trkpt lat="44.466384457502066" lon="11.396978604802953"><ele>78.33333333333333</ele><time>2026-04-29T14:18:55Z</time></trkpt><trkpt lat="44.46647682155961" lon="11.396886601600624"><ele>78.66666666666666</ele><time>2026-04-29T14:18:57Z</time></trkpt><trkpt lat="44.46654002088184" lon="11.396832098056482"><ele>79.0</ele><time>2026-04-29T14:18:58Z</time></trkpt><trkpt lat="44.46660878499558" lon="11.396778357648895"><ele>78.0</ele><time>2026-04-29T14:18:59Z</time></trkpt><trkpt lat="44.46668264444014" lon="11.39672160428841"><ele>77.0</ele><time>2026-04-29T14:19:00Z</time></trkpt><trkpt lat="44.46675729773544" lon="11.39666464177097"><ele>76.0</ele><time>2026-04-29T14:19:01Z</time></trkpt><trkpt lat="44.46683446862053" lon="11.396604308989893"><ele>75.0</ele><time>2026-04-29T14:19:02Z</time></trkpt><trkpt lat="44.466914586827635" lon="11.39653930932949"><ele>74.0</ele><time>2026-04-29T14:19:03Z</time></trkpt><trkpt lat="44.46699744451181" lon="11.39647425972961"><ele>73.0</ele><time>2026-04-29T14:19:04Z</time></trkpt><trkpt lat="44.46708525340315" lon="11.39640719590215"><ele>73.0</ele><time>2026-04-29T14:19:05Z</time></trkpt><trkpt lat="44.467173789851174" lon="11.396335753999486"><ele>73.0</ele><time>2026-04-29T14:19:06Z</time></trkpt><trkpt lat="44.467263399548955" lon="11.396260362697952"><ele>73.0</ele><time>2026-04-29T14:19:07Z</time></trkpt><trkpt lat="44.46735514087128" lon="11.396186168259165"><ele>73.0</ele><time>2026-04-29T14:19:08Z</time></trkpt><trkpt lat="44.46744468714919" lon="11.396108243749188"><ele>73.0</ele><time>2026-04-29T14:19:09Z</time></trkpt><trkpt lat="44.4675354472054" lon="11.396033514317363"><ele>73.0</ele><time>2026-04-29T14:19:10Z</time></trkpt><trkpt lat="44.46762753021471" lon="11.395958150587983"><ele>73.0</ele><time>2026-04-29T14:19:11Z</time></trkpt><trkpt lat="44.46771989192217" lon="11.395880930644555"><ele>73.0</ele><time>2026-04-29T14:19:12Z</time></trkpt><trkpt lat="44.4678100211156" lon="11.395802548836818"><ele>73.0</ele><time>2026-04-29T14:19:13Z</time></trkpt><trkpt lat="44.46790256197236" lon="11.3957270816972"><ele>73.0</ele><time>2026-04-29T14:19:14Z</time></trkpt><trkpt lat="44.467996562418826" lon="11.395647995363586"><ele>72.2</ele><time>2026-04-29T14:19:15Z</time></trkpt><trkpt lat="44.46808892838136" lon="11.395569876756001"><ele>71.4</ele><time>2026-04-29T14:19:16Z</time></trkpt><trkpt lat="44.46818148580205" lon="11.395493259856199"><ele>70.60000000000001</ele><time>2026-04-29T14:19:17Z</time></trkpt><trkpt lat="44.46827419370229" lon="11.395418480896891"><ele>69.8</ele><time>2026-04-29T14:19:18Z</time></trkpt><trkpt lat="44.468364820118836" lon="11.395343426386853"><ele>69.0</ele><time>2026-04-29T14:19:19Z</time></trkpt><trkpt lat="44.468454857837486" lon="11.395270205806895"><ele>68.8</ele><time>2026-04-29T14:19:20Z</time></trkpt><trkpt lat="44.46854299319482" lon="11.395192974453838"><ele>68.60000000000001</ele><time>2026-04-29T14:19:21Z</time></trkpt><trkpt lat="44.46862890826226" lon="11.395123108419384"><ele>68.4</ele><time>2026-04-29T14:19:22Z</time></trkpt><trkpt lat="44.468715661963444" lon="11.39505547797452"><ele>68.2</ele><time>2026-04-29T14:19:23Z</time></trkpt><trkpt lat="44.468802750950346" lon="11.395000066402119"><ele>68.0</ele><time>2026-04-29T14:19:24Z</time></trkpt><trkpt lat="44.46888906618785" lon="11.39495222850948"><ele>68.0</ele><time>2026-04-29T14:19:25Z</time></trkpt><trkpt lat="44.46897351784499" lon="11.394915042795441"><ele>68.0</ele><time>2026-04-29T14:19:26Z</time></trkpt><trkpt lat="44.46906240281466" lon="11.394878447098018"><ele>68.0</ele><time>2026-04-29T14:19:27Z</time></trkpt><trkpt lat="44.46915730015617" lon="11.394838587084397"><ele>68.0</ele><time>2026-04-29T14:19:28Z</time></trkpt><trkpt lat="44.46926266205378" lon="11.394799327289645"><ele>68.0</ele><time>2026-04-29T14:19:29Z</time></trkpt><trkpt lat="44.469367790873555" lon="11.39476487419894"><ele>68.0</ele><time>2026-04-29T14:19:30Z</time></trkpt><trkpt lat="44.46947269471432" lon="11.394726530011805"><ele>68.0</ele><time>2026-04-29T14:19:31Z</time></trkpt><trkpt lat="44.46957530098773" lon="11.39468597527204"><ele>68.0</ele><time>2026-04-29T14:19:32Z</time></trkpt><trkpt lat="44.4696756832518" lon="11.394634096445342"><ele>68.0</ele><time>2026-04-29T14:19:33Z</time></trkpt><trkpt lat="44.46976667749882" lon="11.394564440111123"><ele>68.0</ele><time>2026-04-29T14:19:34Z</time></trkpt><trkpt lat="44.46984246923966" lon="11.394470223801846"><ele>68.2</ele><time>2026-04-29T14:19:35Z</time></trkpt><trkpt lat="44.46989596057401" lon="11.394357994559554"><ele>68.4</ele><time>2026-04-29T14:19:36Z</time></trkpt><trkpt lat="44.46994706746523" lon="11.39424104137118"><ele>68.60000000000001</ele><time>2026-04-29T14:19:37Z</time></trkpt><trkpt lat="44.46996421431734" lon="11.394098472800488"><ele>68.8</ele><time>2026-04-29T14:19:38Z</time></trkpt><trkpt lat="44.46996272344227" lon="11.393953716805639"><ele>69.0</ele><time>2026-04-29T14:19:39Z</time></trkpt><trkpt lat="44.469947895379214" lon="11.393810606608781"><ele>69.4</ele><time>2026-04-29T14:19:40Z</time></trkpt><trkpt lat="44.469913745405044" lon="11.393678953712762"><ele>69.80000000000001</ele><time>2026-04-29T14:19:41Z</time></trkpt><trkpt lat="44.46990212817026" lon="11.393547495050639"><ele>70.19999999999999</ele><time>2026-04-29T14:19:41.999Z</time></trkpt><trkpt lat="44.46989060271087" lon="11.39341904738836"><ele>70.6</ele><time>2026-04-29T14:19:42.999Z</time></trkpt><trkpt lat="44.469897507987554" lon="11.393287997337449"><ele>71.0</ele><time>2026-04-29T14:19:43.999Z</time></trkpt><trkpt lat="44.469897802740874" lon="11.393150085627136"><ele>71.0</ele><time>2026-04-29T14:19:44.999Z</time></trkpt><trkpt lat="44.469898829908644" lon="11.39300937146427"><ele>71.0</ele><time>2026-04-29T14:19:45.999Z</time></trkpt><trkpt lat="44.46990173148707" lon="11.392865002816256"><ele>71.0</ele><time>2026-04-29T14:19:46.999Z</time></trkpt><trkpt lat="44.46993661768353" lon="11.39271878255516"><ele>71.0</ele><time>2026-04-29T14:19:47.999Z</time></trkpt><trkpt lat="44.4700043162628" lon="11.39258888225501"><ele>71.0</ele><time>2026-04-29T14:19:48.999Z</time></trkpt><trkpt lat="44.470062670491714" lon="11.392440816339573"><ele>71.5</ele><time>2026-04-29T14:19:49.999Z</time></trkpt><trkpt lat="44.470111934333225" lon="11.392283469369621"><ele>72.0</ele><time>2026-04-29T14:19:50.999Z</time></trkpt><trkpt lat="44.47017136669087" lon="11.39212506514151"><ele>72.5</ele><time>2026-04-29T14:19:51.999Z</time></trkpt><trkpt lat="44.47023231084467" lon="11.391965020440695"><ele>73.0</ele><time>2026-04-29T14:19:52.999Z</time></trkpt><trkpt lat="44.47029436668122" lon="11.391803753188999"><ele>73.0</ele><time>2026-04-29T14:19:53.999Z</time></trkpt><trkpt lat="44.47035511101172" lon="11.391641013706321"><ele>73.0</ele><time>2026-04-29T14:19:54.999Z</time></trkpt><trkpt lat="44.47041532727384" lon="11.391478985220902"><ele>73.0</ele><time>2026-04-29T14:19:55.999Z</time></trkpt><trkpt lat="44.470475688485834" lon="11.391317286130999"><ele>73.0</ele><time>2026-04-29T14:19:56.999Z</time></trkpt><trkpt lat="44.4705367798378" lon="11.391156462204389"><ele>73.0</ele><time>2026-04-29T14:19:57.999Z</time></trkpt><trkpt lat="44.47059907205057" lon="11.390996757864249"><ele>73.0</ele><time>2026-04-29T14:19:58.999Z</time></trkpt><trkpt lat="44.47066050052664" lon="11.390838655536562"><ele>73.0</ele><time>2026-04-29T14:19:59.999Z</time></trkpt><trkpt lat="44.4707208163243" lon="11.39068239835925"><ele>73.0</ele><time>2026-04-29T14:20:00.999Z</time></trkpt><trkpt lat="44.470781672651015" lon="11.390527168848392"><ele>73.75</ele><time>2026-04-29T14:20:01.999Z</time></trkpt><trkpt lat="44.47084218159116" lon="11.390369243741386"><ele>74.5</ele><time>2026-04-29T14:20:02.999Z</time></trkpt><trkpt lat="44.47090037752345" lon="11.390214309877212"><ele>75.25</ele><time>2026-04-29T14:20:03.999Z</time></trkpt><trkpt lat="44.470956965184726" lon="11.390066039425172"><ele>76.0</ele><time>2026-04-29T14:20:04.999Z</time></trkpt><trkpt lat="44.471010369328454" lon="11.389925328950634"><ele>76.0</ele><time>2026-04-29T14:20:05.999Z</time></trkpt><trkpt lat="44.47106784030302" lon="11.389789956322842"><ele>76.0</ele><time>2026-04-29T14:20:07Z</time></trkpt><trkpt lat="44.471123454576265" lon="11.38965671504528"><ele>76.0</ele><time>2026-04-29T14:20:08Z</time></trkpt><trkpt lat="44.47117581212492" lon="11.38952294359585"><ele>76.0</ele><time>2026-04-29T14:20:09Z</time></trkpt><trkpt lat="44.471226974324225" lon="11.389390986954979"><ele>76.0</ele><time>2026-04-29T14:20:10Z</time></trkpt><trkpt lat="44.47127565215947" lon="11.389265917854857"><ele>75.5</ele><time>2026-04-29T14:20:11Z</time></trkpt><trkpt lat="44.47131709540566" lon="11.389157822969096"><ele>75.0</ele><time>2026-04-29T14:20:12Z</time></trkpt><trkpt lat="44.47135208141094" lon="11.389065995776107"><ele>74.5</ele><time>2026-04-29T14:20:13Z</time></trkpt><trkpt lat="44.47138327232688" lon="11.388986350933013"><ele>74.0</ele><time>2026-04-29T14:20:14Z</time></trkpt><trkpt lat="44.471423710287375" lon="11.38888073653896"><ele>73.5</ele><time>2026-04-29T14:20:16Z</time></trkpt><trkpt lat="44.471458616939785" lon="11.388803164515677"><ele>73.0</ele><time>2026-04-29T14:20:43Z</time></trkpt><trkpt lat="44.47149492345015" lon="11.38871353057614"><ele>72.83333333333333</ele><time>2026-04-29T14:20:46Z</time></trkpt><trkpt lat="44.47154427914694" lon="11.388587767457507"><ele>72.66666666666666</ele><time>2026-04-29T14:20:48Z</time></trkpt><trkpt lat="44.47159067489125" lon="11.388465459913155"><ele>72.5</ele><time>2026-04-29T14:20:50Z</time></trkpt><trkpt lat="44.47163075934899" lon="11.388359042649862"><ele>72.33333333333333</ele><time>2026-04-29T14:20:52Z</time></trkpt><trkpt lat="44.4716656390217" lon="11.38826272686328"><ele>72.16666666666667</ele><time>2026-04-29T14:20:55Z</time></trkpt><trkpt lat="44.47169687119683" lon="11.38818336125723"><ele>72.0</ele><time>2026-04-29T14:21:04Z</time></trkpt><trkpt lat="44.47173102961788" lon="11.388101310666524"><ele>71.85714285714286</ele><time>2026-04-29T14:21:07Z</time></trkpt><trkpt lat="44.471767631064516" lon="11.388005137758373"><ele>71.71428571428572</ele><time>2026-04-29T14:21:11Z</time></trkpt><trkpt lat="44.47180776509467" lon="11.387900129351843"><ele>71.57142857142857</ele><time>2026-04-29T14:21:14Z</time></trkpt><trkpt lat="44.47183719110932" lon="11.387821876635575"><ele>71.42857142857143</ele><time>2026-04-29T14:21:16Z</time></trkpt><trkpt lat="44.47186757975829" lon="11.387738483234063"><ele>71.28571428571428</ele><time>2026-04-29T14:21:18Z</time></trkpt><trkpt lat="44.47189684464046" lon="11.387659584509905"><ele>71.14285714285714</ele><time>2026-04-29T14:21:20Z</time></trkpt><trkpt lat="44.47192728497236" lon="11.38758021117877"><ele>71.0</ele><time>2026-04-29T14:21:22Z</time></trkpt><trkpt lat="44.47196315190517" lon="11.387493655870065"><ele>71.0</ele><time>2026-04-29T14:21:24Z</time></trkpt><trkpt lat="44.47200686053515" lon="11.387387677481687"><ele>71.0</ele><time>2026-04-29T14:21:26Z</time></trkpt><trkpt lat="44.47207399462902" lon="11.387292201249974"><ele>71.0</ele><time>2026-04-29T14:21:29Z</time></trkpt><trkpt lat="44.47217138484999" lon="11.387228389354556"><ele>71.0</ele><time>2026-04-29T14:21:31Z</time></trkpt><trkpt lat="44.47223014731823" lon="11.387191247808952"><ele>71.0</ele><time>2026-04-29T14:21:32Z</time></trkpt><trkpt lat="44.472291631725255" lon="11.38716910812248"><ele>71.0</ele><time>2026-04-29T14:21:33Z</time></trkpt><trkpt lat="44.472328207236956" lon="11.387073865159245"><ele>70.66666666666667</ele><time>2026-04-29T14:21:34Z</time></trkpt><trkpt lat="44.472356603942096" lon="11.38698468304943"><ele>70.33333333333334</ele><time>2026-04-29T14:21:35Z</time></trkpt><trkpt lat="44.472384686586814" lon="11.386885184146811"><ele>70.0</ele><time>2026-04-29T14:21:36Z</time></trkpt><trkpt lat="44.472376788698206" lon="11.386775314181497"><ele>69.66666666666667</ele><time>2026-04-29T14:21:37Z</time></trkpt><trkpt lat="44.472333997190596" lon="11.386662299446208"><ele>69.33333333333333</ele><time>2026-04-29T14:21:38Z</time></trkpt><trkpt lat="44.47226505898605" lon="11.386576981029103"><ele>69.0</ele><time>2026-04-29T14:21:39Z</time></trkpt><trkpt lat="44.47217928463038" lon="11.38652866260792"><ele>68.8</ele><time>2026-04-29T14:21:40Z</time></trkpt><trkpt lat="44.472081102650534" lon="11.386516814858286"><ele>68.60000000000001</ele><time>2026-04-29T14:21:41Z</time></trkpt><trkpt lat="44.47197593765591" lon="11.386537391036375"><ele>68.4</ele><time>2026-04-29T14:21:42Z</time></trkpt><trkpt lat="44.47187760876562" lon="11.386522167067728"><ele>68.2</ele><time>2026-04-29T14:21:43Z</time></trkpt><trkpt lat="44.47178378415557" lon="11.386495254960684"><ele>68.0</ele><time>2026-04-29T14:21:44Z</time></trkpt><trkpt lat="44.4716939488143" lon="11.386453952533868"><ele>68.0</ele><time>2026-04-29T14:21:45Z</time></trkpt><trkpt lat="44.47160744898001" lon="11.38640318828639"><ele>68.0</ele><time>2026-04-29T14:21:46Z</time></trkpt><trkpt lat="44.471528167715256" lon="11.386350636992058"><ele>68.0</ele><time>2026-04-29T14:21:47Z</time></trkpt><trkpt lat="44.47145971617188" lon="11.386300723996097"><ele>68.0</ele><time>2026-04-29T14:21:48Z</time></trkpt><trkpt lat="44.471401163253645" lon="11.386254536868991"><ele>68.0</ele><time>2026-04-29T14:21:49Z</time></trkpt><trkpt lat="44.47132755757618" lon="11.386206072781887"><ele>68.0</ele><time>2026-04-29T14:21:51Z</time></trkpt><trkpt lat="44.47136470211583" lon="11.386062968907522"><ele>67.83333333333334</ele><time>2026-04-29T14:21:52Z</time></trkpt><trkpt lat="44.47141880983825" lon="11.385901343996997"><ele>67.66666666666667</ele><time>2026-04-29T14:21:54Z</time></trkpt><trkpt lat="44.4714444666019" lon="11.38580254505993"><ele>67.5</ele><time>2026-04-29T14:21:55Z</time></trkpt><trkpt lat="44.47145631033778" lon="11.385695159780054"><ele>67.33333333333333</ele><time>2026-04-29T14:21:56Z</time></trkpt><trkpt lat="44.4714678961308" lon="11.385582636076"><ele>67.16666666666666</ele><time>2026-04-29T14:21:57Z</time></trkpt><trkpt lat="44.47148114059225" lon="11.385470019328888"><ele>67.0</ele><time>2026-04-29T14:21:58Z</time></trkpt><trkpt lat="44.47151528521642" lon="11.385357305587773"><ele>67.0</ele><time>2026-04-29T14:21:59Z</time></trkpt><trkpt lat="44.471520772925125" lon="11.385230322563464"><ele>67.0</ele><time>2026-04-29T14:22:00Z</time></trkpt><trkpt lat="44.471539496513074" lon="11.385104436875457"><ele>67.0</ele><time>2026-04-29T14:22:01Z</time></trkpt><trkpt lat="44.47155538696178" lon="11.384983088717885"><ele>67.0</ele><time>2026-04-29T14:22:02Z</time></trkpt><trkpt lat="44.471574059294575" lon="11.384848074452504"><ele>67.0</ele><time>2026-04-29T14:22:03Z</time></trkpt><trkpt lat="44.471593599737304" lon="11.384705436255082"><ele>66.4</ele><time>2026-04-29T14:22:04Z</time></trkpt><trkpt lat="44.47160983005846" lon="11.384568939191066"><ele>65.80000000000001</ele><time>2026-04-29T14:22:05Z</time></trkpt><trkpt lat="44.471624460639674" lon="11.384433591050609"><ele>65.2</ele><time>2026-04-29T14:22:06Z</time></trkpt><trkpt lat="44.47163906941958" lon="11.384298545263977"><ele>64.60000000000001</ele><time>2026-04-29T14:22:07Z</time></trkpt><trkpt lat="44.47165300358225" lon="11.384162434094101"><ele>64.0</ele><time>2026-04-29T14:22:08Z</time></trkpt><trkpt lat="44.4716675076738" lon="11.384028686863404"><ele>63.99999999999999</ele><time>2026-04-29T14:22:09Z</time></trkpt><trkpt lat="44.47169334125373" lon="11.383897512033997"><ele>64.0</ele><time>2026-04-29T14:22:10Z</time></trkpt><trkpt lat="44.47173666066559" lon="11.38378335860841"><ele>64.0</ele><time>2026-04-29T14:22:11Z</time></trkpt><trkpt lat="44.4717805178983" lon="11.383675166142512"><ele>64.0</ele><time>2026-04-29T14:22:12Z</time></trkpt><trkpt lat="44.47182153400792" lon="11.383570091617802"><ele>63.99999999999999</ele><time>2026-04-29T14:22:13Z</time></trkpt><trkpt lat="44.471861198425984" lon="11.38346661934036"><ele>64.0</ele><time>2026-04-29T14:22:14Z</time></trkpt><trkpt lat="44.4718991344748" lon="11.383367181832986"><ele>64.33333333333333</ele><time>2026-04-29T14:22:15Z</time></trkpt><trkpt lat="44.47193435088977" lon="11.383271607391071"><ele>64.66666666666666</ele><time>2026-04-29T14:22:16Z</time></trkpt><trkpt lat="44.4719715365395" lon="11.38317647912704"><ele>65.0</ele><time>2026-04-29T14:22:17Z</time></trkpt><trkpt lat="44.472006260631794" lon="11.38308773351532"><ele>65.33333333333333</ele><time>2026-04-29T14:22:18Z</time></trkpt><trkpt lat="44.47204064684708" lon="11.382999699277367"><ele>65.66666666666667</ele><time>2026-04-29T14:22:19Z</time></trkpt><trkpt lat="44.47207134090508" lon="11.382916552501047"><ele>66.0</ele><time>2026-04-29T14:22:20Z</time></trkpt><trkpt lat="44.47213215474643" lon="11.382774030400086"><ele>66.2</ele><time>2026-04-29T14:22:22Z</time></trkpt><trkpt lat="44.472181727932124" lon="11.382646302743531"><ele>66.39999999999999</ele><time>2026-04-29T14:22:24Z</time></trkpt><trkpt lat="44.47221777165667" lon="11.382542730872016"><ele>66.6</ele><time>2026-04-29T14:22:26Z</time></trkpt><trkpt lat="44.47225890441535" lon="11.382455840360908"><ele>66.8</ele><time>2026-04-29T14:22:34Z</time></trkpt><trkpt lat="44.47230252807788" lon="11.382342025381265"><ele>67.0</ele><time>2026-04-29T14:22:36Z</time></trkpt><trkpt lat="44.47235818413208" lon="11.3821907553491"><ele>67.33333333333333</ele><time>2026-04-29T14:22:38Z</time></trkpt><trkpt lat="44.47238741351085" lon="11.382107943897406"><ele>67.66666666666666</ele><time>2026-04-29T14:22:39Z</time></trkpt><trkpt lat="44.472416921878484" lon="11.382028977299019"><ele>68.0</ele><time>2026-04-29T14:22:40Z</time></trkpt><trkpt lat="44.47246750927888" lon="11.381903182033037"><ele>68.33333333333333</ele><time>2026-04-29T14:22:42Z</time></trkpt><trkpt lat="44.472508764684676" lon="11.381815896262074"><ele>68.66666666666667</ele><time>2026-04-29T14:22:45Z</time></trkpt><trkpt lat="44.47254555014922" lon="11.381730327264583"><ele>69.0</ele><time>2026-04-29T14:22:47Z</time></trkpt><trkpt lat="44.47260203991395" lon="11.381584487353859"><ele>69.0</ele><time>2026-04-29T14:22:49Z</time></trkpt><trkpt lat="44.472659802028964" lon="11.381433766952181"><ele>69.0</ele><time>2026-04-29T14:22:51Z</time></trkpt><trkpt lat="44.47271134035089" lon="11.381322272959563"><ele>69.0</ele><time>2026-04-29T14:22:53Z</time></trkpt><trkpt lat="44.47274805163286" lon="11.381236455666816"><ele>69.0</ele><time>2026-04-29T14:22:56Z</time></trkpt><trkpt lat="44.47283294888278" lon="11.381291446450744"><ele>69.0</ele><time>2026-04-29T14:22:57Z</time></trkpt><trkpt lat="44.47290840526102" lon="11.381345981482491"><ele>69.28571428571429</ele><time>2026-04-29T14:22:59Z</time></trkpt><trkpt lat="44.47295950776913" lon="11.381403802966522"><ele>69.57142857142858</ele><time>2026-04-29T14:23:01Z</time></trkpt><trkpt lat="44.47301011817917" lon="11.381328268195201"><ele>69.85714285714286</ele><time>2026-04-29T14:23:03Z</time></trkpt><trkpt lat="44.47306047098904" lon="11.381254653061765"><ele>70.14285714285714</ele><time>2026-04-29T14:23:09Z</time></trkpt><trkpt lat="44.47313852005045" lon="11.381275323582356"><ele>70.42857142857142</ele><time>2026-04-29T14:23:13Z</time></trkpt><trkpt lat="44.473204298215734" lon="11.381306185919538"><ele>70.71428571428571</ele><time>2026-04-29T14:23:15Z</time></trkpt><trkpt lat="44.473270713230136" lon="11.381342584927461"><ele>71.0</ele><time>2026-04-29T14:23:17Z</time></trkpt><trkpt lat="44.47333507057392" lon="11.381393962619457"><ele>71.0</ele><time>2026-04-29T14:23:20Z</time></trkpt></trkseg></trk></gpx>